sensor_id;sensor_type;location;lat;lon;timestamp;P1;durP1;ratioP1;P2;durP2;ratioP2
50161;SDS011;36061;48.116;11.612;2023-07-16T00:00:16;3.57;;;3.27;;
50161;SDS011;36061;48.116;11.612;2023-07-16T00:02:48;4.37;;;2.83;;
50161;SDS011;36061;48.116;11.612;2023-07-16T00:05:16;4.33;;;3.40;;
50161;SDS011;36061;48.116;11.612;2023-07-16T00:07:43;8.30;;;3.50;;
50161;SDS011;36061;48.116;11.612;2023-07-16T00:10:12;4.57;;;3.37;;
50161;SDS011;36061;48.116;11.612;2023-07-16T00:12:39;4.10;;;3.27;;
50161;SDS011;36061;48.116;11.612;2023-07-16T00:15:07;4.83;;;3.23;;
50161;SDS011;36061;48.116;11.612;2023-07-16T00:17:34;5.07;;;3.37;;
50161;SDS011;36061;48.116;11.612;2023-07-16T00:20:02;4.87;;;2.87;;
50161;SDS011;36061;48.116;11.612;2023-07-16T00:22:30;8.50;;;3.23;;
50161;SDS011;36061;48.116;11.612;2023-07-16T00:24:57;5.17;;;3.40;;
50161;SDS011;36061;48.116;11.612;2023-07-16T00:27:26;4.87;;;3.37;;
50161;SDS011;36061;48.116;11.612;2023-07-16T00:29:53;8.77;;;3.93;;
50161;SDS011;36061;48.116;11.612;2023-07-16T00:32:20;4.70;;;3.17;;
50161;SDS011;36061;48.116;11.612;2023-07-16T00:34:47;9.07;;;3.17;;
50161;SDS011;36061;48.116;11.612;2023-07-16T00:37:14;4.37;;;3.20;;
50161;SDS011;36061;48.116;11.612;2023-07-16T00:39:42;7.40;;;3.50;;
50161;SDS011;36061;48.116;11.612;2023-07-16T00:42:09;5.00;;;3.47;;
50161;SDS011;36061;48.116;11.612;2023-07-16T00:44:38;4.73;;;3.57;;
50161;SDS011;36061;48.116;11.612;2023-07-16T00:47:05;5.13;;;3.77;;
50161;SDS011;36061;48.116;11.612;2023-07-16T00:49:34;5.47;;;3.30;;
50161;SDS011;36061;48.116;11.612;2023-07-16T00:52:01;3.77;;;3.03;;
50161;SDS011;36061;48.116;11.612;2023-07-16T00:54:29;4.10;;;3.03;;
50161;SDS011;36061;48.116;11.612;2023-07-16T00:56:57;4.20;;;3.80;;
50161;SDS011;36061;48.116;11.612;2023-07-16T00:59:25;4.50;;;3.00;;
50161;SDS011;36061;48.116;11.612;2023-07-16T01:01:54;3.77;;;3.00;;
50161;SDS011;36061;48.116;11.612;2023-07-16T01:04:21;3.83;;;3.43;;
50161;SDS011;36061;48.116;11.612;2023-07-16T01:06:50;5.53;;;3.77;;
50161;SDS011;36061;48.116;11.612;2023-07-16T01:09:20;4.70;;;3.70;;
50161;SDS011;36061;48.116;11.612;2023-07-16T01:11:49;5.17;;;3.80;;
50161;SDS011;36061;48.116;11.612;2023-07-16T01:14:17;7.47;;;3.87;;
50161;SDS011;36061;48.116;11.612;2023-07-16T01:16:45;8.73;;;3.90;;
50161;SDS011;36061;48.116;11.612;2023-07-16T01:19:14;6.07;;;4.20;;
50161;SDS011;36061;48.116;11.612;2023-07-16T01:21:43;6.97;;;3.90;;
50161;SDS011;36061;48.116;11.612;2023-07-16T01:27:22;5.30;;;4.43;;
50161;SDS011;36061;48.116;11.612;2023-07-16T01:30:03;4.20;;;3.73;;
50161;SDS011;36061;48.116;11.612;2023-07-16T01:32:34;5.20;;;3.57;;
50161;SDS011;36061;48.116;11.612;2023-07-16T01:35:02;6.03;;;3.77;;
50161;SDS011;36061;48.116;11.612;2023-07-16T01:37:32;6.33;;;4.10;;
50161;SDS011;36061;48.116;11.612;2023-07-16T01:39:59;4.80;;;4.00;;
50161;SDS011;36061;48.116;11.612;2023-07-16T01:42:28;4.17;;;3.77;;
50161;SDS011;36061;48.116;11.612;2023-07-16T01:44:55;5.93;;;3.90;;
50161;SDS011;36061;48.116;11.612;2023-07-16T01:47:32;4.83;;;3.80;;
50161;SDS011;36061;48.116;11.612;2023-07-16T01:50:09;4.33;;;3.60;;
50161;SDS011;36061;48.116;11.612;2023-07-16T01:52:37;6.47;;;3.90;;
50161;SDS011;36061;48.116;11.612;2023-07-16T01:55:04;8.00;;;3.40;;
50161;SDS011;36061;48.116;11.612;2023-07-16T01:57:32;6.33;;;3.73;;
50161;SDS011;36061;48.116;11.612;2023-07-16T01:59:59;7.30;;;3.93;;
50161;SDS011;36061;48.116;11.612;2023-07-16T02:02:29;5.10;;;3.93;;
50161;SDS011;36061;48.116;11.612;2023-07-16T02:04:56;7.27;;;4.37;;
50161;SDS011;36061;48.116;11.612;2023-07-16T02:07:24;8.50;;;4.07;;
50161;SDS011;36061;48.116;11.612;2023-07-16T02:09:51;7.93;;;4.70;;
50161;SDS011;36061;48.116;11.612;2023-07-16T02:12:18;5.73;;;3.87;;
50161;SDS011;36061;48.116;11.612;2023-07-16T02:14:45;6.67;;;3.87;;
50161;SDS011;36061;48.116;11.612;2023-07-16T02:17:13;5.90;;;4.10;;
50161;SDS011;36061;48.116;11.612;2023-07-16T02:19:41;5.00;;;4.03;;
50161;SDS011;36061;48.116;11.612;2023-07-16T02:22:09;6.77;;;4.80;;
50161;SDS011;36061;48.116;11.612;2023-07-16T02:24:36;5.73;;;4.13;;
50161;SDS011;36061;48.116;11.612;2023-07-16T02:27:04;5.03;;;4.33;;
50161;SDS011;36061;48.116;11.612;2023-07-16T02:29:32;5.07;;;3.87;;
50161;SDS011;36061;48.116;11.612;2023-07-16T02:31:59;6.93;;;4.50;;
50161;SDS011;36061;48.116;11.612;2023-07-16T02:34:27;8.60;;;4.57;;
50161;SDS011;36061;48.116;11.612;2023-07-16T02:36:55;4.40;;;4.00;;
50161;SDS011;36061;48.116;11.612;2023-07-16T02:39:23;5.40;;;3.67;;
50161;SDS011;36061;48.116;11.612;2023-07-16T02:41:50;4.50;;;4.10;;
50161;SDS011;36061;48.116;11.612;2023-07-16T02:44:18;5.57;;;4.10;;
50161;SDS011;36061;48.116;11.612;2023-07-16T02:46:45;6.07;;;3.73;;
50161;SDS011;36061;48.116;11.612;2023-07-16T02:49:13;11.10;;;4.53;;
50161;SDS011;36061;48.116;11.612;2023-07-16T02:51:41;5.23;;;3.93;;
50161;SDS011;36061;48.116;11.612;2023-07-16T02:54:09;5.87;;;4.07;;
50161;SDS011;36061;48.116;11.612;2023-07-16T02:56:36;4.97;;;3.83;;
50161;SDS011;36061;48.116;11.612;2023-07-16T02:59:04;6.90;;;3.90;;
50161;SDS011;36061;48.116;11.612;2023-07-16T03:01:31;6.70;;;4.83;;
50161;SDS011;36061;48.116;11.612;2023-07-16T03:03:58;4.47;;;3.40;;
50161;SDS011;36061;48.116;11.612;2023-07-16T03:06:25;5.10;;;4.30;;
50161;SDS011;36061;48.116;11.612;2023-07-16T03:08:53;4.90;;;4.03;;
50161;SDS011;36061;48.116;11.612;2023-07-16T03:11:21;4.10;;;3.20;;
50161;SDS011;36061;48.116;11.612;2023-07-16T03:13:49;5.10;;;3.30;;
50161;SDS011;36061;48.116;11.612;2023-07-16T03:16:16;4.90;;;3.23;;
50161;SDS011;36061;48.116;11.612;2023-07-16T03:18:43;5.50;;;3.10;;
50161;SDS011;36061;48.116;11.612;2023-07-16T03:21:11;4.63;;;3.20;;
50161;SDS011;36061;48.116;11.612;2023-07-16T03:23:38;3.60;;;2.63;;
50161;SDS011;36061;48.116;11.612;2023-07-16T03:26:06;4.33;;;2.60;;
50161;SDS011;36061;48.116;11.612;2023-07-16T03:28:34;4.00;;;2.60;;
50161;SDS011;36061;48.116;11.612;2023-07-16T03:31:05;4.47;;;2.67;;
50161;SDS011;36061;48.116;11.612;2023-07-16T03:33:35;3.13;;;2.27;;
50161;SDS011;36061;48.116;11.612;2023-07-16T03:36:03;3.37;;;2.33;;
50161;SDS011;36061;48.116;11.612;2023-07-16T03:38:30;2.87;;;2.63;;
50161;SDS011;36061;48.116;11.612;2023-07-16T03:40:58;4.73;;;2.80;;
50161;SDS011;36061;48.116;11.612;2023-07-16T03:43:26;2.87;;;2.10;;
50161;SDS011;36061;48.116;11.612;2023-07-16T03:46:02;3.97;;;2.50;;
50161;SDS011;36061;48.116;11.612;2023-07-16T03:48:32;3.47;;;2.20;;
50161;SDS011;36061;48.116;11.612;2023-07-16T03:50:59;2.73;;;2.37;;
50161;SDS011;36061;48.116;11.612;2023-07-16T03:53:27;3.20;;;2.17;;
50161;SDS011;36061;48.116;11.612;2023-07-16T03:55:54;2.70;;;2.50;;
50161;SDS011;36061;48.116;11.612;2023-07-16T03:58:21;3.43;;;2.50;;
50161;SDS011;36061;48.116;11.612;2023-07-16T04:00:49;4.47;;;2.73;;
50161;SDS011;36061;48.116;11.612;2023-07-16T04:03:17;5.10;;;2.93;;
50161;SDS011;36061;48.116;11.612;2023-07-16T04:05:44;4.07;;;2.90;;
50161;SDS011;36061;48.116;11.612;2023-07-16T04:08:12;3.93;;;2.70;;
50161;SDS011;36061;48.116;11.612;2023-07-16T04:10:39;4.43;;;2.50;;
50161;SDS011;36061;48.116;11.612;2023-07-16T04:13:06;2.73;;;2.23;;
50161;SDS011;36061;48.116;11.612;2023-07-16T04:15:33;3.03;;;2.50;;
50161;SDS011;36061;48.116;11.612;2023-07-16T04:18:01;2.40;;;2.13;;
50161;SDS011;36061;48.116;11.612;2023-07-16T04:20:30;2.87;;;2.67;;
50161;SDS011;36061;48.116;11.612;2023-07-16T04:22:59;4.23;;;2.53;;
50161;SDS011;36061;48.116;11.612;2023-07-16T04:25:26;3.70;;;2.70;;
50161;SDS011;36061;48.116;11.612;2023-07-16T04:27:53;13.50;;;3.33;;
50161;SDS011;36061;48.116;11.612;2023-07-16T04:30:20;5.03;;;2.83;;
50161;SDS011;36061;48.116;11.612;2023-07-16T04:32:48;6.60;;;3.10;;
50161;SDS011;36061;48.116;11.612;2023-07-16T04:35:15;4.53;;;2.70;;
50161;SDS011;36061;48.116;11.612;2023-07-16T04:37:44;6.17;;;2.73;;
50161;SDS011;36061;48.116;11.612;2023-07-16T04:40:12;2.43;;;2.10;;
50161;SDS011;36061;48.116;11.612;2023-07-16T04:42:39;3.10;;;2.13;;
50161;SDS011;36061;48.116;11.612;2023-07-16T04:45:06;3.60;;;2.13;;
50161;SDS011;36061;48.116;11.612;2023-07-16T04:47:34;2.90;;;2.30;;
50161;SDS011;36061;48.116;11.612;2023-07-16T04:50:01;3.23;;;1.90;;
50161;SDS011;36061;48.116;11.612;2023-07-16T04:52:28;2.97;;;2.00;;
50161;SDS011;36061;48.116;11.612;2023-07-16T04:54:57;3.77;;;1.90;;
50161;SDS011;36061;48.116;11.612;2023-07-16T04:57:24;2.20;;;2.00;;
50161;SDS011;36061;48.116;11.612;2023-07-16T04:59:52;5.03;;;1.87;;
50161;SDS011;36061;48.116;11.612;2023-07-16T05:02:20;2.57;;;2.07;;
50161;SDS011;36061;48.116;11.612;2023-07-16T05:04:47;1.83;;;1.73;;
50161;SDS011;36061;48.116;11.612;2023-07-16T05:07:15;3.30;;;1.90;;
50161;SDS011;36061;48.116;11.612;2023-07-16T05:09:42;2.30;;;1.87;;
50161;SDS011;36061;48.116;11.612;2023-07-16T05:12:11;3.87;;;2.27;;
50161;SDS011;36061;48.116;11.612;2023-07-16T05:14:42;3.17;;;2.03;;
50161;SDS011;36061;48.116;11.612;2023-07-16T05:17:12;4.07;;;2.37;;
50161;SDS011;36061;48.116;11.612;2023-07-16T05:19:40;3.20;;;1.90;;
50161;SDS011;36061;48.116;11.612;2023-07-16T05:22:07;2.80;;;2.17;;
50161;SDS011;36061;48.116;11.612;2023-07-16T05:24:34;2.60;;;2.23;;
50161;SDS011;36061;48.116;11.612;2023-07-16T05:27:02;3.70;;;2.57;;
50161;SDS011;36061;48.116;11.612;2023-07-16T05:29:31;2.83;;;1.60;;
50161;SDS011;36061;48.116;11.612;2023-07-16T05:31:58;2.53;;;1.50;;
50161;SDS011;36061;48.116;11.612;2023-07-16T05:34:25;2.80;;;1.80;;
50161;SDS011;36061;48.116;11.612;2023-07-16T05:36:53;3.60;;;1.90;;
50161;SDS011;36061;48.116;11.612;2023-07-16T05:39:20;10.30;;;1.70;;
50161;SDS011;36061;48.116;11.612;2023-07-16T05:41:48;2.00;;;1.90;;
50161;SDS011;36061;48.116;11.612;2023-07-16T05:44:15;2.50;;;1.77;;
50161;SDS011;36061;48.116;11.612;2023-07-16T05:46:44;2.13;;;1.80;;
50161;SDS011;36061;48.116;11.612;2023-07-16T05:49:11;2.17;;;1.50;;
50161;SDS011;36061;48.116;11.612;2023-07-16T05:51:38;1.67;;;1.53;;
50161;SDS011;36061;48.116;11.612;2023-07-16T05:54:05;1.83;;;1.73;;
50161;SDS011;36061;48.116;11.612;2023-07-16T05:56:32;3.27;;;1.90;;
50161;SDS011;36061;48.116;11.612;2023-07-16T05:59:00;1.67;;;1.33;;
50161;SDS011;36061;48.116;11.612;2023-07-16T06:01:27;3.50;;;1.70;;
50161;SDS011;36061;48.116;11.612;2023-07-16T06:03:56;1.80;;;1.60;;
50161;SDS011;36061;48.116;11.612;2023-07-16T06:06:23;3.47;;;1.80;;
50161;SDS011;36061;48.116;11.612;2023-07-16T06:08:50;1.83;;;1.60;;
50161;SDS011;36061;48.116;11.612;2023-07-16T06:11:17;1.47;;;1.37;;
50161;SDS011;36061;48.116;11.612;2023-07-16T06:13:45;1.87;;;1.60;;
50161;SDS011;36061;48.116;11.612;2023-07-16T06:16:12;2.77;;;1.60;;
50161;SDS011;36061;48.116;11.612;2023-07-16T06:18:39;1.43;;;1.33;;
50161;SDS011;36061;48.116;11.612;2023-07-16T06:21:08;2.90;;;1.43;;
50161;SDS011;36061;48.116;11.612;2023-07-16T06:23:35;2.00;;;1.60;;
50161;SDS011;36061;48.116;11.612;2023-07-16T06:26:02;1.70;;;1.40;;
50161;SDS011;36061;48.116;11.612;2023-07-16T06:28:30;2.20;;;2.00;;
50161;SDS011;36061;48.116;11.612;2023-07-16T06:30:57;3.27;;;1.80;;
50161;SDS011;36061;48.116;11.612;2023-07-16T06:33:24;3.07;;;2.67;;
50161;SDS011;36061;48.116;11.612;2023-07-16T06:35:52;4.30;;;2.07;;
50161;SDS011;36061;48.116;11.612;2023-07-16T06:38:21;2.77;;;2.00;;
50161;SDS011;36061;48.116;11.612;2023-07-16T06:40:48;2.10;;;1.90;;
50161;SDS011;36061;48.116;11.612;2023-07-16T06:43:16;4.90;;;1.90;;
50161;SDS011;36061;48.116;11.612;2023-07-16T06:45:44;1.60;;;1.50;;
50161;SDS011;36061;48.116;11.612;2023-07-16T06:48:11;3.60;;;1.97;;
50161;SDS011;36061;48.116;11.612;2023-07-16T06:50:38;2.17;;;1.90;;
50161;SDS011;36061;48.116;11.612;2023-07-16T06:53:05;4.20;;;2.33;;
50161;SDS011;36061;48.116;11.612;2023-07-16T06:55:34;2.93;;;2.30;;
50161;SDS011;36061;48.116;11.612;2023-07-16T06:58:01;3.40;;;2.40;;
50161;SDS011;36061;48.116;11.612;2023-07-16T07:00:29;3.47;;;1.90;;
50161;SDS011;36061;48.116;11.612;2023-07-16T07:02:56;3.90;;;1.97;;
50161;SDS011;36061;48.116;11.612;2023-07-16T07:05:23;4.00;;;2.00;;
50161;SDS011;36061;48.116;11.612;2023-07-16T07:07:50;3.93;;;2.40;;
50161;SDS011;36061;48.116;11.612;2023-07-16T07:10:18;2.43;;;2.07;;
50161;SDS011;36061;48.116;11.612;2023-07-16T07:12:46;4.07;;;1.90;;
50161;SDS011;36061;48.116;11.612;2023-07-16T07:15:14;1.97;;;1.63;;
50161;SDS011;36061;48.116;11.612;2023-07-16T07:17:41;2.17;;;1.90;;
50161;SDS011;36061;48.116;11.612;2023-07-16T07:20:12;2.23;;;1.60;;
50161;SDS011;36061;48.116;11.612;2023-07-16T07:22:40;2.90;;;1.80;;
50161;SDS011;36061;48.116;11.612;2023-07-16T07:25:07;4.10;;;1.80;;
50161;SDS011;36061;48.116;11.612;2023-07-16T07:27:34;1.40;;;1.20;;
50161;SDS011;36061;48.116;11.612;2023-07-16T07:30:03;2.60;;;1.70;;
50161;SDS011;36061;48.116;11.612;2023-07-16T07:32:31;1.77;;;1.47;;
50161;SDS011;36061;48.116;11.612;2023-07-16T07:34:59;2.37;;;1.30;;
50161;SDS011;36061;48.116;11.612;2023-07-16T07:37:26;3.27;;;1.27;;
50161;SDS011;36061;48.116;11.612;2023-07-16T07:39:53;1.67;;;1.57;;
50161;SDS011;36061;48.116;11.612;2023-07-16T07:42:20;2.00;;;1.30;;
50161;SDS011;36061;48.116;11.612;2023-07-16T07:44:48;2.33;;;1.20;;
50161;SDS011;36061;48.116;11.612;2023-07-16T07:47:17;3.23;;;1.40;;
50161;SDS011;36061;48.116;11.612;2023-07-16T07:49:44;2.03;;;1.53;;
50161;SDS011;36061;48.116;11.612;2023-07-16T07:52:11;1.77;;;1.37;;
50161;SDS011;36061;48.116;11.612;2023-07-16T07:54:38;1.57;;;1.33;;
50161;SDS011;36061;48.116;11.612;2023-07-16T07:57:06;1.40;;;1.30;;
50161;SDS011;36061;48.116;11.612;2023-07-16T07:59:33;3.17;;;1.33;;
50161;SDS011;36061;48.116;11.612;2023-07-16T08:02:01;1.77;;;1.30;;
50161;SDS011;36061;48.116;11.612;2023-07-16T08:04:29;3.00;;;1.33;;
50161;SDS011;36061;48.116;11.612;2023-07-16T08:06:57;2.27;;;1.40;;
50161;SDS011;36061;48.116;11.612;2023-07-16T08:09:25;2.50;;;1.80;;
50161;SDS011;36061;48.116;11.612;2023-07-16T08:11:52;1.70;;;1.60;;
50161;SDS011;36061;48.116;11.612;2023-07-16T08:14:20;2.13;;;1.70;;
50161;SDS011;36061;48.116;11.612;2023-07-16T08:16:47;4.03;;;1.90;;
50161;SDS011;36061;48.116;11.612;2023-07-16T08:19:14;2.20;;;1.70;;
50161;SDS011;36061;48.116;11.612;2023-07-16T08:21:43;2.23;;;1.87;;
50161;SDS011;36061;48.116;11.612;2023-07-16T08:24:10;1.93;;;1.60;;
50161;SDS011;36061;48.116;11.612;2023-07-16T08:26:38;1.90;;;1.50;;
50161;SDS011;36061;48.116;11.612;2023-07-16T08:29:05;1.50;;;1.40;;
50161;SDS011;36061;48.116;11.612;2023-07-16T08:31:32;1.70;;;1.57;;
50161;SDS011;36061;48.116;11.612;2023-07-16T08:33:59;3.07;;;1.80;;
50161;SDS011;36061;48.116;11.612;2023-07-16T08:36:26;2.10;;;1.80;;
50161;SDS011;36061;48.116;11.612;2023-07-16T08:38:55;2.27;;;1.37;;
50161;SDS011;36061;48.116;11.612;2023-07-16T08:41:22;2.63;;;1.60;;
50161;SDS011;36061;48.116;11.612;2023-07-16T08:43:50;1.73;;;1.30;;
50161;SDS011;36061;48.116;11.612;2023-07-16T08:46:17;1.43;;;1.33;;
50161;SDS011;36061;48.116;11.612;2023-07-16T08:48:45;2.10;;;1.20;;
50161;SDS011;36061;48.116;11.612;2023-07-16T08:51:13;1.67;;;1.40;;
50161;SDS011;36061;48.116;11.612;2023-07-16T08:53:41;4.37;;;1.70;;
50161;SDS011;36061;48.116;11.612;2023-07-16T08:56:10;3.37;;;1.70;;
50161;SDS011;36061;48.116;11.612;2023-07-16T08:58:37;2.50;;;1.30;;
50161;SDS011;36061;48.116;11.612;2023-07-16T09:01:06;2.37;;;1.33;;
50161;SDS011;36061;48.116;11.612;2023-07-16T09:03:38;1.50;;;1.20;;
50161;SDS011;36061;48.116;11.612;2023-07-16T09:06:05;1.93;;;1.30;;
50161;SDS011;36061;48.116;11.612;2023-07-16T09:08:33;2.00;;;1.60;;
50161;SDS011;36061;48.116;11.612;2023-07-16T09:11:00;1.60;;;1.20;;
50161;SDS011;36061;48.116;11.612;2023-07-16T09:13:28;2.67;;;1.60;;
50161;SDS011;36061;48.116;11.612;2023-07-16T09:15:56;1.83;;;1.50;;
50161;SDS011;36061;48.116;11.612;2023-07-16T09:18:25;1.17;;;1.07;;
50161;SDS011;36061;48.116;11.612;2023-07-16T09:20:54;1.63;;;1.20;;
50161;SDS011;36061;48.116;11.612;2023-07-16T09:23:23;2.13;;;1.30;;
50161;SDS011;36061;48.116;11.612;2023-07-16T09:25:53;1.37;;;1.20;;
50161;SDS011;36061;48.116;11.612;2023-07-16T09:28:20;2.33;;;1.90;;
50161;SDS011;36061;48.116;11.612;2023-07-16T09:30:50;1.43;;;1.33;;
50161;SDS011;36061;48.116;11.612;2023-07-16T09:33:18;1.57;;;1.40;;
50161;SDS011;36061;48.116;11.612;2023-07-16T09:35:47;1.87;;;1.37;;
50161;SDS011;36061;48.116;11.612;2023-07-16T09:38:15;1.30;;;1.13;;
50161;SDS011;36061;48.116;11.612;2023-07-16T09:40:43;1.83;;;1.37;;
50161;SDS011;36061;48.116;11.612;2023-07-16T09:43:11;2.03;;;1.50;;
50161;SDS011;36061;48.116;11.612;2023-07-16T09:45:39;1.90;;;1.50;;
50161;SDS011;36061;48.116;11.612;2023-07-16T09:48:10;1.80;;;1.30;;
50161;SDS011;36061;48.116;11.612;2023-07-16T09:50:38;2.80;;;1.23;;
50161;SDS011;36061;48.116;11.612;2023-07-16T09:53:08;1.97;;;1.50;;
50161;SDS011;36061;48.116;11.612;2023-07-16T09:55:36;1.53;;;1.43;;
50161;SDS011;36061;48.116;11.612;2023-07-16T09:58:05;1.43;;;1.33;;
50161;SDS011;36061;48.116;11.612;2023-07-16T10:00:34;1.60;;;1.30;;
50161;SDS011;36061;48.116;11.612;2023-07-16T10:03:05;1.47;;;1.30;;
50161;SDS011;36061;48.116;11.612;2023-07-16T10:05:36;1.47;;;1.33;;
50161;SDS011;36061;48.116;11.612;2023-07-16T10:08:04;2.00;;;1.50;;
50161;SDS011;36061;48.116;11.612;2023-07-16T10:10:38;2.17;;;1.50;;
50161;SDS011;36061;48.116;11.612;2023-07-16T10:13:06;1.70;;;1.03;;
50161;SDS011;36061;48.116;11.612;2023-07-16T10:15:34;1.43;;;1.17;;
50161;SDS011;36061;48.116;11.612;2023-07-16T10:18:01;1.27;;;1.17;;
50161;SDS011;36061;48.116;11.612;2023-07-16T10:20:29;1.67;;;1.40;;
50161;SDS011;36061;48.116;11.612;2023-07-16T10:23:09;2.03;;;1.40;;
50161;SDS011;36061;48.116;11.612;2023-07-16T10:25:38;1.40;;;1.30;;
50161;SDS011;36061;48.116;11.612;2023-07-16T10:28:06;1.97;;;1.07;;
50161;SDS011;36061;48.116;11.612;2023-07-16T10:30:33;1.53;;;1.30;;
50161;SDS011;36061;48.116;11.612;2023-07-16T10:33:02;1.57;;;1.47;;
50161;SDS011;36061;48.116;11.612;2023-07-16T10:35:34;1.50;;;1.40;;
50161;SDS011;36061;48.116;11.612;2023-07-16T10:38:04;1.57;;;1.20;;
50161;SDS011;36061;48.116;11.612;2023-07-16T10:40:31;1.50;;;1.40;;
50161;SDS011;36061;48.116;11.612;2023-07-16T10:42:58;1.77;;;1.60;;
50161;SDS011;36061;48.116;11.612;2023-07-16T10:45:25;1.37;;;1.20;;
50161;SDS011;36061;48.116;11.612;2023-07-16T10:47:55;2.50;;;1.80;;
50161;SDS011;36061;48.116;11.612;2023-07-16T10:50:22;3.20;;;1.70;;
50161;SDS011;36061;48.116;11.612;2023-07-16T10:52:50;1.83;;;1.40;;
50161;SDS011;36061;48.116;11.612;2023-07-16T10:55:20;2.17;;;1.40;;
50161;SDS011;36061;48.116;11.612;2023-07-16T10:57:48;3.13;;;1.37;;
50161;SDS011;36061;48.116;11.612;2023-07-16T11:00:16;1.97;;;1.50;;
50161;SDS011;36061;48.116;11.612;2023-07-16T11:02:44;1.57;;;1.47;;
50161;SDS011;36061;48.116;11.612;2023-07-16T11:05:12;1.60;;;1.50;;
50161;SDS011;36061;48.116;11.612;2023-07-16T11:07:42;1.57;;;1.27;;
50161;SDS011;36061;48.116;11.612;2023-07-16T11:10:10;2.03;;;1.40;;
50161;SDS011;36061;48.116;11.612;2023-07-16T11:12:39;1.67;;;1.47;;
50161;SDS011;36061;48.116;11.612;2023-07-16T11:15:08;2.67;;;1.90;;
50161;SDS011;36061;48.116;11.612;2023-07-16T11:17:37;1.53;;;1.43;;
50161;SDS011;36061;48.116;11.612;2023-07-16T11:20:06;1.20;;;1.10;;
50161;SDS011;36061;48.116;11.612;2023-07-16T11:22:36;1.53;;;1.40;;
50161;SDS011;36061;48.116;11.612;2023-07-16T11:25:10;1.40;;;1.30;;
50161;SDS011;36061;48.116;11.612;2023-07-16T11:27:40;1.93;;;1.70;;
50161;SDS011;36061;48.116;11.612;2023-07-16T11:30:08;2.93;;;1.50;;
50161;SDS011;36061;48.116;11.612;2023-07-16T11:32:36;1.50;;;1.40;;
50161;SDS011;36061;48.116;11.612;2023-07-16T11:35:05;2.20;;;1.70;;
50161;SDS011;36061;48.116;11.612;2023-07-16T11:37:34;2.17;;;1.50;;
50161;SDS011;36061;48.116;11.612;2023-07-16T11:40:02;3.63;;;2.10;;
50161;SDS011;36061;48.116;11.612;2023-07-16T11:42:31;2.47;;;1.70;;
50161;SDS011;36061;48.116;11.612;2023-07-16T11:45:02;1.97;;;1.60;;
50161;SDS011;36061;48.116;11.612;2023-07-16T11:47:32;2.70;;;1.70;;
50161;SDS011;36061;48.116;11.612;2023-07-16T11:49:59;2.97;;;1.80;;
50161;SDS011;36061;48.116;11.612;2023-07-16T11:52:27;2.47;;;1.60;;
50161;SDS011;36061;48.116;11.612;2023-07-16T11:54:56;1.70;;;1.50;;
50161;SDS011;36061;48.116;11.612;2023-07-16T11:57:26;2.20;;;1.70;;
50161;SDS011;36061;48.116;11.612;2023-07-16T11:59:53;2.43;;;1.53;;
50161;SDS011;36061;48.116;11.612;2023-07-16T12:02:22;2.30;;;1.80;;
50161;SDS011;36061;48.116;11.612;2023-07-16T12:04:50;2.83;;;1.70;;
50161;SDS011;36061;48.116;11.612;2023-07-16T12:07:29;1.47;;;1.30;;
50161;SDS011;36061;48.116;11.612;2023-07-16T12:09:57;2.20;;;1.47;;
50161;SDS011;36061;48.116;11.612;2023-07-16T12:12:24;1.73;;;1.50;;
50161;SDS011;36061;48.116;11.612;2023-07-16T12:14:52;2.07;;;1.83;;
50161;SDS011;36061;48.116;11.612;2023-07-16T12:17:19;2.17;;;1.40;;
50161;SDS011;36061;48.116;11.612;2023-07-16T12:19:47;2.30;;;1.80;;
50161;SDS011;36061;48.116;11.612;2023-07-16T12:22:16;4.33;;;1.93;;
50161;SDS011;36061;48.116;11.612;2023-07-16T12:24:44;2.53;;;2.13;;
50161;SDS011;36061;48.116;11.612;2023-07-16T12:27:13;2.00;;;1.73;;
50161;SDS011;36061;48.116;11.612;2023-07-16T12:29:41;2.00;;;1.73;;
50161;SDS011;36061;48.116;11.612;2023-07-16T12:32:09;4.80;;;2.40;;
50161;SDS011;36061;48.116;11.612;2023-07-16T12:34:38;1.97;;;1.60;;
50161;SDS011;36061;48.116;11.612;2023-07-16T12:37:09;2.50;;;1.70;;
50161;SDS011;36061;48.116;11.612;2023-07-16T12:39:37;2.90;;;1.60;;
50161;SDS011;36061;48.116;11.612;2023-07-16T12:42:04;1.83;;;1.57;;
50161;SDS011;36061;48.116;11.612;2023-07-16T12:44:32;1.80;;;1.70;;
50161;SDS011;36061;48.116;11.612;2023-07-16T12:46:59;1.70;;;1.57;;
50161;SDS011;36061;48.116;11.612;2023-07-16T12:49:26;1.77;;;1.50;;
50161;SDS011;36061;48.116;11.612;2023-07-16T12:51:53;2.33;;;1.60;;
50161;SDS011;36061;48.116;11.612;2023-07-16T12:54:22;3.90;;;2.07;;
50161;SDS011;36061;48.116;11.612;2023-07-16T12:56:49;3.03;;;2.30;;
50161;SDS011;36061;48.116;11.612;2023-07-16T12:59:17;2.70;;;1.93;;
50161;SDS011;36061;48.116;11.612;2023-07-16T13:01:44;3.43;;;1.50;;
50161;SDS011;36061;48.116;11.612;2023-07-16T13:04:11;2.95;;;1.95;;
50161;SDS011;36061;48.116;11.612;2023-07-16T13:06:38;4.60;;;1.87;;
50161;SDS011;36061;48.116;11.612;2023-07-16T13:09:06;2.93;;;1.93;;
50161;SDS011;36061;48.116;11.612;2023-07-16T13:11:34;2.73;;;1.90;;
50161;SDS011;36061;48.116;11.612;2023-07-16T13:14:01;2.17;;;1.63;;
50161;SDS011;36061;48.116;11.612;2023-07-16T13:16:29;2.93;;;1.80;;
50161;SDS011;36061;48.116;11.612;2023-07-16T13:18:56;2.10;;;1.90;;
50161;SDS011;36061;48.116;11.612;2023-07-16T13:21:23;2.10;;;1.70;;
50161;SDS011;36061;48.116;11.612;2023-07-16T13:23:51;2.37;;;1.80;;
50161;SDS011;36061;48.116;11.612;2023-07-16T13:26:18;2.20;;;2.00;;
50161;SDS011;36061;48.116;11.612;2023-07-16T13:28:46;2.30;;;1.50;;
50161;SDS011;36061;48.116;11.612;2023-07-16T13:31:13;3.70;;;1.87;;
50161;SDS011;36061;48.116;11.612;2023-07-16T13:33:41;1.60;;;1.50;;
50161;SDS011;36061;48.116;11.612;2023-07-16T13:36:08;2.07;;;1.63;;
50161;SDS011;36061;48.116;11.612;2023-07-16T13:38:35;2.03;;;1.70;;
50161;SDS011;36061;48.116;11.612;2023-07-16T13:41:02;1.80;;;1.70;;
50161;SDS011;36061;48.116;11.612;2023-07-16T13:43:30;1.67;;;1.50;;
50161;SDS011;36061;48.116;11.612;2023-07-16T13:45:58;2.13;;;1.90;;
50161;SDS011;36061;48.116;11.612;2023-07-16T13:48:26;2.10;;;1.80;;
50161;SDS011;36061;48.116;11.612;2023-07-16T13:50:53;2.00;;;1.80;;
50161;SDS011;36061;48.116;11.612;2023-07-16T13:53:20;2.10;;;1.90;;
50161;SDS011;36061;48.116;11.612;2023-07-16T13:55:47;1.90;;;1.70;;
50161;SDS011;36061;48.116;11.612;2023-07-16T13:58:15;3.20;;;1.90;;
50161;SDS011;36061;48.116;11.612;2023-07-16T14:00:42;4.30;;;1.97;;
50161;SDS011;36061;48.116;11.612;2023-07-16T14:03:10;2.13;;;1.80;;
50161;SDS011;36061;48.116;11.612;2023-07-16T14:05:38;3.57;;;2.13;;
50161;SDS011;36061;48.116;11.612;2023-07-16T14:08:05;2.17;;;1.80;;
50161;SDS011;36061;48.116;11.612;2023-07-16T14:10:33;2.03;;;1.80;;
50161;SDS011;36061;48.116;11.612;2023-07-16T14:13:00;2.43;;;1.93;;
50161;SDS011;36061;48.116;11.612;2023-07-16T14:15:28;2.23;;;1.80;;
50161;SDS011;36061;48.116;11.612;2023-07-16T14:17:55;2.40;;;1.87;;
50161;SDS011;36061;48.116;11.612;2023-07-16T14:20:23;4.77;;;2.20;;
50161;SDS011;36061;48.116;11.612;2023-07-16T14:22:51;3.63;;;1.87;;
50161;SDS011;36061;48.116;11.612;2023-07-16T14:25:18;2.00;;;1.80;;
50161;SDS011;36061;48.116;11.612;2023-07-16T14:27:45;2.30;;;2.10;;
50161;SDS011;36061;48.116;11.612;2023-07-16T14:30:13;2.40;;;2.07;;
50161;SDS011;36061;48.116;11.612;2023-07-16T14:32:40;2.50;;;2.00;;
50161;SDS011;36061;48.116;11.612;2023-07-16T14:35:08;2.23;;;1.97;;
50161;SDS011;36061;48.116;11.612;2023-07-16T14:37:38;2.60;;;1.97;;
50161;SDS011;36061;48.116;11.612;2023-07-16T14:40:06;2.23;;;1.77;;